sensor_id;sensor_type;location;lat;lon;timestamp;P1;durP1;ratioP1;P2;durP2;ratioP2
68192;SDS011;55012;47.562;18.414;2023-04-15T00:00:14;26.83;;;12.05;;
68192;SDS011;55012;47.562;18.414;2023-04-15T00:02:40;31.27;;;13.48;;
68192;SDS011;55012;47.562;18.414;2023-04-15T00:05:06;34.55;;;15.00;;
68192;SDS011;55012;47.562;18.414;2023-04-15T00:07:31;37.00;;;15.40;;
68192;SDS011;55012;47.562;18.414;2023-04-15T00:09:57;35.35;;;15.82;;
68192;SDS011;55012;47.562;18.414;2023-04-15T00:12:23;33.53;;;14.63;;
68192;SDS011;55012;47.562;18.414;2023-04-15T00:14:49;29.92;;;13.70;;
68192;SDS011;55012;47.562;18.414;2023-04-15T00:17:15;29.30;;;13.27;;
68192;SDS011;55012;47.562;18.414;2023-04-15T00:19:41;29.02;;;13.48;;
68192;SDS011;55012;47.562;18.414;2023-04-15T00:22:08;32.20;;;12.88;;
68192;SDS011;55012;47.562;18.414;2023-04-15T00:24:34;32.03;;;13.57;;
68192;SDS011;55012;47.562;18.414;2023-04-15T00:27:00;30.38;;;13.55;;
68192;SDS011;55012;47.562;18.414;2023-04-15T00:29:26;33.30;;;14.15;;
68192;SDS011;55012;47.562;18.414;2023-04-15T00:31:52;39.83;;;15.40;;
68192;SDS011;55012;47.562;18.414;2023-04-15T00:34:17;36.15;;;15.07;;
68192;SDS011;55012;47.562;18.414;2023-04-15T00:36:43;35.05;;;14.55;;
68192;SDS011;55012;47.562;18.414;2023-04-15T00:39:08;30.55;;;14.43;;
68192;SDS011;55012;47.562;18.414;2023-04-15T00:41:34;41.53;;;16.38;;
68192;SDS011;55012;47.562;18.414;2023-04-15T00:44:03;41.25;;;15.80;;
68192;SDS011;55012;47.562;18.414;2023-04-15T00:46:29;35.25;;;15.00;;
68192;SDS011;55012;47.562;18.414;2023-04-15T00:48:55;31.92;;;14.38;;
68192;SDS011;55012;47.562;18.414;2023-04-15T00:51:21;30.83;;;14.23;;
68192;SDS011;55012;47.562;18.414;2023-04-15T00:53:46;30.33;;;14.05;;
68192;SDS011;55012;47.562;18.414;2023-04-15T00:56:12;29.40;;;13.85;;
68192;SDS011;55012;47.562;18.414;2023-04-15T00:58:38;29.95;;;14.07;;
68192;SDS011;55012;47.562;18.414;2023-04-15T01:01:04;32.22;;;14.48;;
68192;SDS011;55012;47.562;18.414;2023-04-15T01:03:29;29.77;;;14.15;;
68192;SDS011;55012;47.562;18.414;2023-04-15T01:05:55;32.42;;;15.15;;
68192;SDS011;55012;47.562;18.414;2023-04-15T01:08:27;33.63;;;15.38;;
68192;SDS011;55012;47.562;18.414;2023-04-15T01:10:55;35.42;;;16.13;;
68192;SDS011;55012;47.562;18.414;2023-04-15T01:13:22;34.03;;;15.20;;
68192;SDS011;55012;47.562;18.414;2023-04-15T01:15:49;30.65;;;14.95;;
68192;SDS011;55012;47.562;18.414;2023-04-15T01:18:15;34.70;;;15.55;;
68192;SDS011;55012;47.562;18.414;2023-04-15T01:20:41;29.83;;;14.93;;
68192;SDS011;55012;47.562;18.414;2023-04-15T01:23:07;30.30;;;15.88;;
68192;SDS011;55012;47.562;18.414;2023-04-15T01:25:32;32.08;;;15.32;;
68192;SDS011;55012;47.562;18.414;2023-04-15T01:27:58;33.78;;;15.80;;
68192;SDS011;55012;47.562;18.414;2023-04-15T01:30:25;32.28;;;15.52;;
68192;SDS011;55012;47.562;18.414;2023-04-15T01:32:51;32.28;;;15.23;;
68192;SDS011;55012;47.562;18.414;2023-04-15T01:35:17;32.15;;;16.52;;
68192;SDS011;55012;47.562;18.414;2023-04-15T01:37:42;30.45;;;15.63;;
68192;SDS011;55012;47.562;18.414;2023-04-15T01:40:09;31.00;;;16.15;;
68192;SDS011;55012;47.562;18.414;2023-04-15T01:42:35;34.42;;;17.05;;
68192;SDS011;55012;47.562;18.414;2023-04-15T01:45:01;34.50;;;16.77;;
68192;SDS011;55012;47.562;18.414;2023-04-15T01:47:27;47.05;;;19.35;;
68192;SDS011;55012;47.562;18.414;2023-04-15T01:49:53;45.88;;;21.05;;
68192;SDS011;55012;47.562;18.414;2023-04-15T01:52:18;46.38;;;20.92;;
68192;SDS011;55012;47.562;18.414;2023-04-15T01:54:44;58.25;;;24.20;;
68192;SDS011;55012;47.562;18.414;2023-04-15T01:57:10;72.20;;;28.95;;
68192;SDS011;55012;47.562;18.414;2023-04-15T01:59:36;74.05;;;28.98;;
68192;SDS011;55012;47.562;18.414;2023-04-15T02:02:02;68.80;;;27.38;;
68192;SDS011;55012;47.562;18.414;2023-04-15T02:04:28;60.42;;;25.13;;
68192;SDS011;55012;47.562;18.414;2023-04-15T02:06:54;57.72;;;24.23;;
68192;SDS011;55012;47.562;18.414;2023-04-15T02:09:19;65.30;;;25.33;;
68192;SDS011;55012;47.562;18.414;2023-04-15T02:11:45;59.63;;;25.50;;
68192;SDS011;55012;47.562;18.414;2023-04-15T02:14:10;47.63;;;21.05;;
68192;SDS011;55012;47.562;18.414;2023-04-15T02:16:36;42.80;;;19.13;;
68192;SDS011;55012;47.562;18.414;2023-04-15T02:19:02;35.67;;;16.88;;
68192;SDS011;55012;47.562;18.414;2023-04-15T02:21:28;34.65;;;16.67;;
68192;SDS011;55012;47.562;18.414;2023-04-15T02:23:54;32.13;;;16.05;;
68192;SDS011;55012;47.562;18.414;2023-04-15T02:26:20;32.15;;;16.08;;
68192;SDS011;55012;47.562;18.414;2023-04-15T02:28:46;30.20;;;15.73;;
68192;SDS011;55012;47.562;18.414;2023-04-15T02:31:13;31.67;;;16.17;;
68192;SDS011;55012;47.562;18.414;2023-04-15T02:33:38;35.17;;;16.88;;
68192;SDS011;55012;47.562;18.414;2023-04-15T02:36:04;33.38;;;16.30;;
68192;SDS011;55012;47.562;18.414;2023-04-15T02:38:30;29.45;;;15.45;;
68192;SDS011;55012;47.562;18.414;2023-04-15T02:40:56;32.42;;;15.77;;
68192;SDS011;55012;47.562;18.414;2023-04-15T02:43:21;31.05;;;14.73;;
68192;SDS011;55012;47.562;18.414;2023-04-15T02:45:47;34.15;;;15.32;;
68192;SDS011;55012;47.562;18.414;2023-04-15T02:48:12;36.50;;;15.70;;
68192;SDS011;55012;47.562;18.414;2023-04-15T02:50:38;40.60;;;17.20;;
68192;SDS011;55012;47.562;18.414;2023-04-15T02:53:04;46.38;;;19.10;;
68192;SDS011;55012;47.562;18.414;2023-04-15T02:55:30;43.33;;;18.10;;
68192;SDS011;55012;47.562;18.414;2023-04-15T02:57:56;44.20;;;17.98;;
68192;SDS011;55012;47.562;18.414;2023-04-15T03:00:24;42.33;;;17.40;;
68192;SDS011;55012;47.562;18.414;2023-04-15T03:02:50;45.50;;;18.73;;
68192;SDS011;55012;47.562;18.414;2023-04-15T03:05:20;44.88;;;18.15;;
68192;SDS011;55012;47.562;18.414;2023-04-15T03:07:49;43.70;;;18.23;;
68192;SDS011;55012;47.562;18.414;2023-04-15T03:10:16;44.67;;;18.42;;
68192;SDS011;55012;47.562;18.414;2023-04-15T03:12:41;43.22;;;17.15;;
68192;SDS011;55012;47.562;18.414;2023-04-15T03:15:07;44.55;;;17.52;;
68192;SDS011;55012;47.562;18.414;2023-04-15T03:17:33;40.22;;;16.77;;
68192;SDS011;55012;47.562;18.414;2023-04-15T03:20:00;35.88;;;15.35;;
68192;SDS011;55012;47.562;18.414;2023-04-15T03:22:26;40.22;;;16.83;;
68192;SDS011;55012;47.562;18.414;2023-04-15T03:24:51;39.35;;;17.20;;
68192;SDS011;55012;47.562;18.414;2023-04-15T03:27:17;41.70;;;17.48;;
68192;SDS011;55012;47.562;18.414;2023-04-15T03:29:42;40.60;;;17.45;;
68192;SDS011;55012;47.562;18.414;2023-04-15T03:32:08;41.20;;;17.42;;
68192;SDS011;55012;47.562;18.414;2023-04-15T03:34:33;37.15;;;16.67;;
68192;SDS011;55012;47.562;18.414;2023-04-15T03:36:58;39.88;;;16.52;;
68192;SDS011;55012;47.562;18.414;2023-04-15T03:39:24;38.20;;;15.98;;
68192;SDS011;55012;47.562;18.414;2023-04-15T03:41:50;35.08;;;14.77;;
68192;SDS011;55012;47.562;18.414;2023-04-15T03:44:15;35.08;;;15.00;;
68192;SDS011;55012;47.562;18.414;2023-04-15T03:46:41;33.88;;;14.60;;
68192;SDS011;55012;47.562;18.414;2023-04-15T03:49:06;33.85;;;15.20;;
68192;SDS011;55012;47.562;18.414;2023-04-15T03:51:32;32.47;;;14.57;;
68192;SDS011;55012;47.562;18.414;2023-04-15T03:53:57;34.92;;;16.17;;
68192;SDS011;55012;47.562;18.414;2023-04-15T03:56:23;32.30;;;14.60;;
68192;SDS011;55012;47.562;18.414;2023-04-15T03:58:49;33.83;;;16.02;;
68192;SDS011;55012;47.562;18.414;2023-04-15T04:01:14;33.67;;;15.32;;
68192;SDS011;55012;47.562;18.414;2023-04-15T04:03:40;36.28;;;15.80;;
68192;SDS011;55012;47.562;18.414;2023-04-15T04:06:06;33.00;;;15.48;;
68192;SDS011;55012;47.562;18.414;2023-04-15T04:08:32;32.05;;;14.90;;
68192;SDS011;55012;47.562;18.414;2023-04-15T04:10:57;33.25;;;15.05;;
68192;SDS011;55012;47.562;18.414;2023-04-15T04:13:23;34.55;;;15.27;;
68192;SDS011;55012;47.562;18.414;2023-04-15T04:15:48;32.17;;;15.35;;
68192;SDS011;55012;47.562;18.414;2023-04-15T04:18:14;29.50;;;14.95;;
68192;SDS011;55012;47.562;18.414;2023-04-15T04:20:40;31.33;;;14.98;;
68192;SDS011;55012;47.562;18.414;2023-04-15T04:23:05;34.83;;;15.07;;
68192;SDS011;55012;47.562;18.414;2023-04-15T04:25:31;32.38;;;15.05;;
68192;SDS011;55012;47.562;18.414;2023-04-15T04:27:57;31.10;;;14.32;;
68192;SDS011;55012;47.562;18.414;2023-04-15T04:30:23;31.52;;;14.75;;
68192;SDS011;55012;47.562;18.414;2023-04-15T04:32:49;32.20;;;15.35;;
68192;SDS011;55012;47.562;18.414;2023-04-15T04:35:15;31.20;;;14.20;;
68192;SDS011;55012;47.562;18.414;2023-04-15T04:37:41;28.90;;;14.32;;
68192;SDS011;55012;47.562;18.414;2023-04-15T04:40:07;38.08;;;16.40;;
68192;SDS011;55012;47.562;18.414;2023-04-15T04:42:33;42.15;;;19.40;;
68192;SDS011;55012;47.562;18.414;2023-04-15T04:44:59;53.08;;;21.98;;
68192;SDS011;55012;47.562;18.414;2023-04-15T04:47:24;42.58;;;18.67;;
68192;SDS011;55012;47.562;18.414;2023-04-15T04:49:50;44.97;;;19.55;;
68192;SDS011;55012;47.562;18.414;2023-04-15T04:52:15;40.33;;;18.88;;
68192;SDS011;55012;47.562;18.414;2023-04-15T04:54:41;48.05;;;20.80;;
68192;SDS011;55012;47.562;18.414;2023-04-15T04:57:06;47.25;;;20.20;;
68192;SDS011;55012;47.562;18.414;2023-04-15T04:59:32;44.63;;;19.25;;
68192;SDS011;55012;47.562;18.414;2023-04-15T05:01:58;47.45;;;19.48;;
68192;SDS011;55012;47.562;18.414;2023-04-15T05:04:23;48.03;;;19.73;;
68192;SDS011;55012;47.562;18.414;2023-04-15T05:06:49;57.50;;;22.23;;
68192;SDS011;55012;47.562;18.414;2023-04-15T05:09:15;58.58;;;22.17;;
68192;SDS011;55012;47.562;18.414;2023-04-15T05:11:40;57.17;;;22.23;;
68192;SDS011;55012;47.562;18.414;2023-04-15T05:14:06;56.55;;;21.25;;
68192;SDS011;55012;47.562;18.414;2023-04-15T05:16:31;54.03;;;20.80;;
68192;SDS011;55012;47.562;18.414;2023-04-15T05:18:57;49.28;;;19.88;;
68192;SDS011;55012;47.562;18.414;2023-04-15T05:21:22;52.65;;;21.25;;
68192;SDS011;55012;47.562;18.414;2023-04-15T05:23:48;50.50;;;23.10;;
68192;SDS011;55012;47.562;18.414;2023-04-15T05:26:13;54.47;;;24.58;;
68192;SDS011;55012;47.562;18.414;2023-04-15T05:28:39;52.10;;;24.17;;
68192;SDS011;55012;47.562;18.414;2023-04-15T05:31:04;38.90;;;18.20;;
68192;SDS011;55012;47.562;18.414;2023-04-15T05:33:31;34.35;;;16.40;;
68192;SDS011;55012;47.562;18.414;2023-04-15T05:35:56;27.70;;;13.90;;
68192;SDS011;55012;47.562;18.414;2023-04-15T05:38:22;26.40;;;13.15;;
68192;SDS011;55012;47.562;18.414;2023-04-15T05:40:48;25.50;;;12.90;;
68192;SDS011;55012;47.562;18.414;2023-04-15T05:43:13;22.85;;;12.27;;
68192;SDS011;55012;47.562;18.414;2023-04-15T05:45:39;21.00;;;11.52;;
68192;SDS011;55012;47.562;18.414;2023-04-15T05:48:04;24.83;;;13.07;;
68192;SDS011;55012;47.562;18.414;2023-04-15T05:50:30;23.33;;;12.80;;
68192;SDS011;55012;47.562;18.414;2023-04-15T05:52:55;28.10;;;13.45;;
68192;SDS011;55012;47.562;18.414;2023-04-15T05:55:21;35.55;;;16.90;;
68192;SDS011;55012;47.562;18.414;2023-04-15T05:57:46;43.63;;;21.83;;
68192;SDS011;55012;47.562;18.414;2023-04-15T06:00:12;53.17;;;26.33;;
68192;SDS011;55012;47.562;18.414;2023-04-15T06:02:39;42.90;;;20.25;;
68192;SDS011;55012;47.562;18.414;2023-04-15T06:05:05;32.28;;;15.35;;
68192;SDS011;55012;47.562;18.414;2023-04-15T06:07:35;23.85;;;12.48;;
68192;SDS011;55012;47.562;18.414;2023-04-15T06:10:01;26.63;;;13.02;;
68192;SDS011;55012;47.562;18.414;2023-04-15T06:12:27;27.65;;;15.15;;
68192;SDS011;55012;47.562;18.414;2023-04-15T06:14:53;24.80;;;12.57;;
68192;SDS011;55012;47.562;18.414;2023-04-15T06:17:18;20.38;;;11.60;;
68192;SDS011;55012;47.562;18.414;2023-04-15T06:19:44;20.92;;;12.00;;
68192;SDS011;55012;47.562;18.414;2023-04-15T06:22:09;19.55;;;10.98;;
68192;SDS011;55012;47.562;18.414;2023-04-15T06:24:35;23.27;;;12.38;;
68192;SDS011;55012;47.562;18.414;2023-04-15T06:27:01;21.33;;;11.88;;
68192;SDS011;55012;47.562;18.414;2023-04-15T06:29:27;18.80;;;10.88;;
68192;SDS011;55012;47.562;18.414;2023-04-15T06:31:53;17.88;;;10.80;;
68192;SDS011;55012;47.562;18.414;2023-04-15T06:34:20;17.73;;;10.73;;
68192;SDS011;55012;47.562;18.414;2023-04-15T06:36:45;20.83;;;11.30;;
68192;SDS011;55012;47.562;18.414;2023-04-15T06:39:11;17.80;;;10.70;;
68192;SDS011;55012;47.562;18.414;2023-04-15T06:41:36;20.23;;;11.15;;
68192;SDS011;55012;47.562;18.414;2023-04-15T06:44:02;19.45;;;10.77;;
68192;SDS011;55012;47.562;18.414;2023-04-15T06:46:28;19.23;;;11.35;;
68192;SDS011;55012;47.562;18.414;2023-04-15T06:48:56;18.00;;;10.95;;
68192;SDS011;55012;47.562;18.414;2023-04-15T06:51:22;18.58;;;10.82;;
68192;SDS011;55012;47.562;18.414;2023-04-15T06:53:48;18.90;;;10.80;;
68192;SDS011;55012;47.562;18.414;2023-04-15T06:56:13;19.63;;;11.02;;
68192;SDS011;55012;47.562;18.414;2023-04-15T06:58:39;21.75;;;11.85;;
68192;SDS011;55012;47.562;18.414;2023-04-15T07:01:04;19.35;;;10.98;;
68192;SDS011;55012;47.562;18.414;2023-04-15T07:03:30;18.15;;;10.80;;
68192;SDS011;55012;47.562;18.414;2023-04-15T07:05:56;20.88;;;11.32;;
68192;SDS011;55012;47.562;18.414;2023-04-15T07:08:22;18.45;;;10.75;;
68192;SDS011;55012;47.562;18.414;2023-04-15T07:10:48;14.75;;;9.48;;
68192;SDS011;55012;47.562;18.414;2023-04-15T07:13:13;16.13;;;9.60;;
68192;SDS011;55012;47.562;18.414;2023-04-15T07:15:39;14.30;;;8.02;;
68192;SDS011;55012;47.562;18.414;2023-04-15T07:18:05;10.27;;;6.38;;
68192;SDS011;55012;47.562;18.414;2023-04-15T07:20:31;9.80;;;6.32;;
68192;SDS011;55012;47.562;18.414;2023-04-15T07:22:57;8.73;;;5.20;;
68192;SDS011;55012;47.562;18.414;2023-04-15T07:25:23;8.25;;;5.20;;
68192;SDS011;55012;47.562;18.414;2023-04-15T07:27:48;8.10;;;4.50;;
68192;SDS011;55012;47.562;18.414;2023-04-15T07:30:13;7.75;;;4.60;;
68192;SDS011;55012;47.562;18.414;2023-04-15T07:32:40;5.63;;;3.75;;
68192;SDS011;55012;47.562;18.414;2023-04-15T07:35:06;7.25;;;4.10;;
68192;SDS011;55012;47.562;18.414;2023-04-15T07:37:32;5.60;;;3.45;;
68192;SDS011;55012;47.562;18.414;2023-04-15T07:39:59;6.60;;;3.30;;
68192;SDS011;55012;47.562;18.414;2023-04-15T07:42:24;4.95;;;3.33;;
68192;SDS011;55012;47.562;18.414;2023-04-15T07:44:50;5.53;;;3.60;;
68192;SDS011;55012;47.562;18.414;2023-04-15T07:47:16;7.05;;;4.35;;
68192;SDS011;55012;47.562;18.414;2023-04-15T07:49:43;4.35;;;3.13;;
68192;SDS011;55012;47.562;18.414;2023-04-15T07:52:09;3.85;;;2.70;;
68192;SDS011;55012;47.562;18.414;2023-04-15T07:54:35;4.85;;;3.00;;
68192;SDS011;55012;47.562;18.414;2023-04-15T07:57:00;5.05;;;3.38;;
68192;SDS011;55012;47.562;18.414;2023-04-15T07:59:27;3.67;;;2.60;;
68192;SDS011;55012;47.562;18.414;2023-04-15T08:01:54;9.60;;;3.30;;
68192;SDS011;55012;47.562;18.414;2023-04-15T08:04:19;5.03;;;2.85;;
68192;SDS011;55012;47.562;18.414;2023-04-15T08:06:45;5.50;;;3.50;;
68192;SDS011;55012;47.562;18.414;2023-04-15T08:09:12;3.28;;;2.47;;
68192;SDS011;55012;47.562;18.414;2023-04-15T08:11:37;4.15;;;2.40;;
68192;SDS011;55012;47.562;18.414;2023-04-15T08:14:03;4.93;;;2.88;;
68192;SDS011;55012;47.562;18.414;2023-04-15T08:16:28;4.40;;;2.80;;
68192;SDS011;55012;47.562;18.414;2023-04-15T08:18:54;5.60;;;2.60;;
68192;SDS011;55012;47.562;18.414;2023-04-15T08:21:20;3.47;;;2.50;;
68192;SDS011;55012;47.562;18.414;2023-04-15T08:23:47;3.67;;;2.38;;
68192;SDS011;55012;47.562;18.414;2023-04-15T08:26:14;2.95;;;2.05;;
68192;SDS011;55012;47.562;18.414;2023-04-15T08:28:41;2.25;;;1.67;;
68192;SDS011;55012;47.562;18.414;2023-04-15T08:31:07;2.72;;;1.80;;
68192;SDS011;55012;47.562;18.414;2023-04-15T08:33:33;4.18;;;2.15;;
68192;SDS011;55012;47.562;18.414;2023-04-15T08:35:58;4.80;;;1.90;;
68192;SDS011;55012;47.562;18.414;2023-04-15T08:38:24;5.10;;;3.08;;
68192;SDS011;55012;47.562;18.414;2023-04-15T08:40:50;4.38;;;2.85;;
68192;SDS011;55012;47.562;18.414;2023-04-15T08:43:39;2.40;;;1.80;;
68192;SDS011;55012;47.562;18.414;2023-04-15T08:46:07;2.65;;;1.73;;
68192;SDS011;55012;47.562;18.414;2023-04-15T08:48:34;4.07;;;2.33;;
68192;SDS011;55012;47.562;18.414;2023-04-15T08:51:02;2.47;;;1.60;;
68192;SDS011;55012;47.562;18.414;2023-04-15T08:53:28;2.53;;;1.80;;
68192;SDS011;55012;47.562;18.414;2023-04-15T08:55:55;4.63;;;2.72;;
68192;SDS011;55012;47.562;18.414;2023-04-15T08:58:21;3.03;;;2.10;;
68192;SDS011;55012;47.562;18.414;2023-04-15T09:00:48;2.22;;;1.63;;
68192;SDS011;55012;47.562;18.414;2023-04-15T09:03:14;1.88;;;1.50;;
68192;SDS011;55012;47.562;18.414;2023-04-15T09:05:41;3.35;;;2.28;;
68192;SDS011;55012;47.562;18.414;2023-04-15T09:08:07;2.00;;;1.50;;
68192;SDS011;55012;47.562;18.414;2023-04-15T09:10:33;2.03;;;1.40;;
68192;SDS011;55012;47.562;18.414;2023-04-15T09:12:59;2.30;;;1.38;;
68192;SDS011;55012;47.562;18.414;2023-04-15T09:15:26;4.35;;;2.53;;
68192;SDS011;55012;47.562;18.414;2023-04-15T09:17:53;2.17;;;1.50;;
68192;SDS011;55012;47.562;18.414;2023-04-15T09:20:19;2.63;;;1.25;;
68192;SDS011;55012;47.562;18.414;2023-04-15T09:22:46;2.65;;;1.67;;
68192;SDS011;55012;47.562;18.414;2023-04-15T09:27:52;2.20;;;1.38;;
68192;SDS011;55012;47.562;18.414;2023-04-15T09:30:19;2.08;;;1.40;;
68192;SDS011;55012;47.562;18.414;2023-04-15T09:32:49;1.67;;;1.20;;
68192;SDS011;55012;47.562;18.414;2023-04-15T09:35:15;1.73;;;1.10;;
68192;SDS011;55012;47.562;18.414;2023-04-15T09:37:40;2.83;;;1.77;;
68192;SDS011;55012;47.562;18.414;2023-04-15T09:40:06;1.38;;;0.95;;
68192;SDS011;55012;47.562;18.414;2023-04-15T09:42:34;1.70;;;1.10;;
68192;SDS011;55012;47.562;18.414;2023-04-15T09:45:10;0.80;;;0.77;;
68192;SDS011;55012;47.562;18.414;2023-04-15T09:47:36;1.80;;;1.13;;
68192;SDS011;55012;47.562;18.414;2023-04-15T09:50:02;1.17;;;0.90;;
68192;SDS011;55012;47.562;18.414;2023-04-15T09:52:28;1.63;;;1.10;;
68192;SDS011;55012;47.562;18.414;2023-04-15T09:54:54;1.98;;;1.35;;
68192;SDS011;55012;47.562;18.414;2023-04-15T09:57:21;0.77;;;0.77;;
68192;SDS011;55012;47.562;18.414;2023-04-15T09:59:48;1.60;;;0.85;;
68192;SDS011;55012;47.562;18.414;2023-04-15T10:02:15;1.17;;;0.90;;
68192;SDS011;55012;47.562;18.414;2023-04-15T10:04:43;2.17;;;1.38;;
68192;SDS011;55012;47.562;18.414;2023-04-15T10:07:10;1.40;;;1.10;;
68192;SDS011;55012;47.562;18.414;2023-04-15T10:09:37;1.33;;;1.02;;
68192;SDS011;55012;47.562;18.414;2023-04-15T10:12:03;2.05;;;1.20;;
68192;SDS011;55012;47.562;18.414;2023-04-15T10:14:33;1.40;;;1.10;;
68192;SDS011;55012;47.562;18.414;2023-04-15T10:17:00;1.95;;;1.25;;
68192;SDS011;55012;47.562;18.414;2023-04-15T10:19:30;4.40;;;2.40;;
68192;SDS011;55012;47.562;18.414;2023-04-15T10:21:57;1.90;;;1.38;;
68192;SDS011;55012;47.562;18.414;2023-04-15T10:24:23;2.88;;;1.75;;
68192;SDS011;55012;47.562;18.414;2023-04-15T10:26:52;3.28;;;1.55;;
68192;SDS011;55012;47.562;18.414;2023-04-15T10:29:19;1.98;;;1.58;;
68192;SDS011;55012;47.562;18.414;2023-04-15T10:31:45;1.92;;;1.40;;
68192;SDS011;55012;47.562;18.414;2023-04-15T10:34:12;2.75;;;1.40;;
68192;SDS011;55012;47.562;18.414;2023-04-15T10:36:39;4.57;;;2.47;;
68192;SDS011;55012;47.562;18.414;2023-04-15T10:42:06;1.60;;;1.23;;
68192;SDS011;55012;47.562;18.414;2023-04-15T10:44:37;3.15;;;1.92;;
68192;SDS011;55012;47.562;18.414;2023-04-15T10:47:14;1.95;;;1.30;;
68192;SDS011;55012;47.562;18.414;2023-04-15T10:49:50;1.50;;;1.20;;
68192;SDS011;55012;47.562;18.414;2023-04-15T10:52:22;2.88;;;1.92;;
68192;SDS011;55012;47.562;18.414;2023-04-15T10:54:49;1.60;;;1.30;;
68192;SDS011;55012;47.562;18.414;2023-04-15T10:57:39;1.58;;;1.20;;
68192;SDS011;55012;47.562;18.414;2023-04-15T11:00:15;2.33;;;1.67;;
68192;SDS011;55012;47.562;18.414;2023-04-15T11:05:20;2.00;;;1.55;;
68192;SDS011;55012;47.562;18.414;2023-04-15T11:07:52;1.95;;;1.40;;
68192;SDS011;55012;47.562;18.414;2023-04-15T11:13:03;1.80;;;1.20;;
68192;SDS011;55012;47.562;18.414;2023-04-15T11:15:34;1.55;;;1.25;;
68192;SDS011;55012;47.562;18.414;2023-04-15T11:20:49;1.75;;;1.25;;
68192;SDS011;55012;47.562;18.414;2023-04-15T11:23:18;1.77;;;1.08;;
68192;SDS011;55012;47.562;18.414;2023-04-15T11:25:53;1.45;;;1.10;;
68192;SDS011;55012;47.562;18.414;2023-04-15T11:28:19;1.65;;;1.10;;
68192;SDS011;55012;47.562;18.414;2023-04-15T11:30:45;7.28;;;4.30;;
68192;SDS011;55012;47.562;18.414;2023-04-15T11:33:11;2.78;;;1.73;;
68192;SDS011;55012;47.562;18.414;2023-04-15T11:35:38;3.30;;;2.13;;
68192;SDS011;55012;47.562;18.414;2023-04-15T11:38:09;2.33;;;1.63;;
68192;SDS011;55012;47.562;18.414;2023-04-15T11:40:37;2.85;;;1.90;;
68192;SDS011;55012;47.562;18.414;2023-04-15T11:45:37;4.60;;;2.85;;
68192;SDS011;55012;47.562;18.414;2023-04-15T11:48:13;2.63;;;1.42;;
68192;SDS011;55012;47.562;18.414;2023-04-15T11:50:39;1.80;;;1.20;;
68192;SDS011;55012;47.562;18.414;2023-04-15T11:53:06;2.65;;;1.75;;
68192;SDS011;55012;47.562;18.414;2023-04-15T11:56:06;2.80;;;1.92;;
68192;SDS011;55012;47.562;18.414;2023-04-15T11:58:25;2.95;;;2.05;;
68192;SDS011;55012;47.562;18.414;2023-04-15T12:00:58;2.28;;;1.42;;
68192;SDS011;55012;47.562;18.414;2023-04-15T12:03:26;3.35;;;2.03;;
68192;SDS011;55012;47.562;18.414;2023-04-15T12:14:25;3.03;;;2.17;;
68192;SDS011;55012;47.562;18.414;2023-04-15T12:16:53;1.58;;;1.20;;
68192;SDS011;55012;47.562;18.414;2023-04-15T12:19:30;3.75;;;2.00;;
68192;SDS011;55012;47.562;18.414;2023-04-15T12:22:01;3.88;;;2.00;;
68192;SDS011;55012;47.562;18.414;2023-04-15T12:24:32;2.47;;;1.63;;
68192;SDS011;55012;47.562;18.414;2023-04-15T12:27:06;5.28;;;2.60;;
68192;SDS011;55012;47.562;18.414;2023-04-15T12:29:39;2.55;;;1.77;;
68192;SDS011;55012;47.562;18.414;2023-04-15T12:32:07;5.15;;;3.13;;
68192;SDS011;55012;47.562;18.414;2023-04-15T12:37:04;1.92;;;1.33;;
68192;SDS011;55012;47.562;18.414;2023-04-15T12:39:34;1.83;;;1.35;;
68192;SDS011;55012;47.562;18.414;2023-04-15T12:42:01;3.22;;;2.10;;
68192;SDS011;55012;47.562;18.414;2023-04-15T12:44:28;2.00;;;1.30;;
68192;SDS011;55012;47.562;18.414;2023-04-15T12:46:54;4.57;;;2.40;;
68192;SDS011;55012;47.562;18.414;2023-04-15T12:49:20;5.07;;;3.40;;
68192;SDS011;55012;47.562;18.414;2023-04-15T12:51:47;6.10;;;3.88;;
68192;SDS011;55012;47.562;18.414;2023-04-15T12:54:15;4.05;;;2.63;;
68192;SDS011;55012;47.562;18.414;2023-04-15T12:56:41;2.33;;;1.70;;
68192;SDS011;55012;47.562;18.414;2023-04-15T12:59:07;2.17;;;1.75;;
68192;SDS011;55012;47.562;18.414;2023-04-15T13:01:33;1.83;;;1.45;;
68192;SDS011;55012;47.562;18.414;2023-04-15T13:03:58;3.60;;;2.08;;
68192;SDS011;55012;47.562;18.414;2023-04-15T13:06:24;2.78;;;2.10;;
68192;SDS011;55012;47.562;18.414;2023-04-15T13:08:49;2.38;;;1.60;;
68192;SDS011;55012;47.562;18.414;2023-04-15T13:11:15;1.75;;;1.45;;
68192;SDS011;55012;47.562;18.414;2023-04-15T13:13:41;2.42;;;1.40;;
68192;SDS011;55012;47.562;18.414;2023-04-15T13:16:07;2.67;;;2.08;;
68192;SDS011;55012;47.562;18.414;2023-04-15T13:18:33;1.80;;;1.30;;
68192;SDS011;55012;47.562;18.414;2023-04-15T13:20:59;1.67;;;1.30;;
68192;SDS011;55012;47.562;18.414;2023-04-15T13:23:25;5.43;;;2.33;;
68192;SDS011;55012;47.562;18.414;2023-04-15T13:25:51;3.38;;;1.67;;
68192;SDS011;55012;47.562;18.414;2023-04-15T13:28:17;1.05;;;0.90;;
68192;SDS011;55012;47.562;18.414;2023-04-15T13:30:42;1.65;;;0.98;;
68192;SDS011;55012;47.562;18.414;2023-04-15T13:33:08;1.60;;;1.20;;
68192;SDS011;55012;47.562;18.414;2023-04-15T13:35:34;1.60;;;0.90;;
68192;SDS011;55012;47.562;18.414;2023-04-15T13:38:00;1.45;;;1.00;;
68192;SDS011;55012;47.562;18.414;2023-04-15T13:40:25;2.00;;;1.13;;
68192;SDS011;55012;47.562;18.414;2023-04-15T13:42:51;2.33;;;1.00;;
68192;SDS011;55012;47.562;18.414;2023-04-15T13:45:17;1.55;;;0.90;;
68192;SDS011;55012;47.562;18.414;2023-04-15T13:47:43;3.97;;;1.30;;
68192;SDS011;55012;47.562;18.414;2023-04-15T13:50:08;2.80;;;1.40;;
68192;SDS011;55012;47.562;18.414;2023-04-15T13:52:35;3.55;;;1.80;;
68192;SDS011;55012;47.562;18.414;2023-04-15T13:55:01;5.25;;;2.05;;
68192;SDS011;55012;47.562;18.414;2023-04-15T13:57:27;4.28;;;2.30;;
68192;SDS011;55012;47.562;18.414;2023-04-15T13:59:52;4.95;;;2.05;;
68192;SDS011;55012;47.562;18.414;2023-04-15T14:02:20;8.48;;;4.35;;
68192;SDS011;55012;47.562;18.414;2023-04-15T14:04:46;3.92;;;1.50;;
68192;SDS011;55012;47.562;18.414;2023-04-15T14:07:12;1.42;;;1.00;;
68192;SDS011;55012;47.562;18.414;2023-04-15T14:09:37;1.83;;;1.17;;
68192;SDS011;55012;47.562;18.414;2023-04-15T14:12:03;0.98;;;0.85;;
68192;SDS011;55012;47.562;18.414;2023-04-15T14:14:29;2.00;;;1.42;;
68192;SDS011;55012;47.562;18.414;2023-04-15T14:16:54;2.33;;;1.35;;
68192;SDS011;55012;47.562;18.414;2023-04-15T14:19:20;3.13;;;1.00;;
68192;SDS011;55012;47.562;18.414;2023-04-15T14:21:46;1.30;;;0.98;;
68192;SDS011;55012;47.562;18.414;2023-04-15T14:24:11;1.67;;;1.20;;
68192;SDS011;55012;47.562;18.414;2023-04-15T14:26:37;4.28;;;1.52;;
68192;SDS011;55012;47.562;18.414;2023-04-15T14:29:02;2.05;;;1.00;;
68192;SDS011;55012;47.562;18.414;2023-04-15T14:31:28;3.00;;;1.63;;
68192;SDS011;55012;47.562;18.414;2023-04-15T14:33:53;2.63;;;1.65;;
68192;SDS011;55012;47.562;18.414;2023-04-15T14:36:19;2.38;;;1.10;;
68192;SDS011;55012;47.562;18.414;2023-04-15T14:38:44;1.80;;;1.20;;
68192;SDS011;55012;47.562;18.414;2023-04-15T14:41:10;2.40;;;1.45;;
68192;SDS011;55012;47.562;18.414;2023-04-15T14:43:36;2.00;;;1.45;;